Time;durP1;ratioP1;P1;durP2;ratioP2;P2;SDS_P1;SDS_P2;PMS_P1;PMS_P2;Temp;Humidity;BMP_temperature;BMP_pressure;BME280_temperature;BME280_humidity;BME280_pressure;Samples;Min_cycle;Max_cycle;Signal;HPM_P1;HPM_P2
2023/01/22 00:01:50;;;;;;;32.50;20.30;;;;;;;;;;4891837;28;100049;-75
2023/01/22 00:04:17;;;;;;;30.42;19.60;;;;;;;;;;4891157;28;100714;-76
2023/01/22 00:06:43;;;;;;;31.17;20.38;;;;;;;;;;4891899;28;99871;-76
2023/01/22 00:09:09;;;;;;;28.33;20.20;;;;;;;;;;4891421;28;99625;-75
2023/01/22 00:11:36;;;;;;;25.83;19.45;;;;;;;;;;4890537;28;100071;-75
2023/01/22 00:14:02;;;;;;;26.77;18.02;;;;;;;;;;4894963;28;98085;-75
2023/01/22 00:16:29;;;;;;;25.88;19.45;;;;;;;;;;4890562;28;99128;-76
2023/01/22 00:18:56;;;;;;;27.70;20.85;;;;;;;;;;4890386;28;98546;-76
2023/01/22 00:21:23;;;;;;;25.48;18.95;;;;;;;;;;4891624;28;98358;-77
2023/01/22 00:23:49;;;;;;;26.40;18.95;;;;;;;;;;4891099;28;100068;-76
2023/01/22 00:26:16;;;;;;;24.42;18.17;;;;;;;;;;4890630;28;98346;-76
2023/01/22 00:28:46;;;;;;;25.05;18.88;;;;;;;;;;4891102;28;100772;-76
2023/01/22 00:31:13;;;;;;;27.95;19.50;;;;;;;;;;4890249;28;98910;-74
2023/01/22 00:33:40;;;;;;;25.35;18.88;;;;;;;;;;4891047;28;98240;-75
2023/01/22 00:36:08;;;;;;;22.77;18.23;;;;;;;;;;4892940;28;99489;-76
2023/01/22 00:38:34;;;;;;;22.85;18.95;;;;;;;;;;4889506;28;98340;-76
2023/01/22 00:41:01;;;;;;;24.35;18.60;;;;;;;;;;4890330;28;99070;-76
2023/01/22 00:43:28;;;;;;;21.13;17.35;;;;;;;;;;4890905;28;99907;-75
2023/01/22 00:45:54;;;;;;;26.77;19.00;;;;;;;;;;4890288;28;98255;-75
2023/01/22 00:48:21;;;;;;;24.58;18.23;;;;;;;;;;4906076;28;101206;-75
2023/01/22 00:50:47;;;;;;;24.02;17.95;;;;;;;;;;4891007;28;99403;-76
2023/01/22 00:53:14;;;;;;;24.05;18.70;;;;;;;;;;4890259;28;98491;-75
2023/01/22 00:55:48;;;;;;;21.42;17.25;;;;;;;;;;4890757;28;99368;-75
2023/01/22 00:58:15;;;;;;;23.13;17.63;;;;;;;;;;4902850;28;102269;-78
2023/01/22 01:00:42;;;;;;;20.75;17.25;;;;;;;;;;4904572;28;100587;-75
2023/01/22 01:06:06;;;;;;;22.92;18.17;;;;;;;;;;4888310;28;98526;-76
2023/01/22 01:08:35;;;;;;;23.75;17.88;;;;;;;;;;4905251;28;99594;-76
2023/01/22 01:11:03;;;;;;;27.08;17.92;;;;;;;;;;4905005;28;99038;-76
2023/01/22 01:13:31;;;;;;;22.77;16.88;;;;;;;;;;4890092;28;98284;-76
2023/01/22 01:16:01;;;;;;;23.88;17.80;;;;;;;;;;4891285;28;98296;-75
2023/01/22 01:18:28;;;;;;;20.65;16.08;;;;;;;;;;4905412;28;101552;-77
2023/01/22 01:20:55;;;;;;;23.33;17.67;;;;;;;;;;4892722;28;98270;-76
2023/01/22 01:23:22;;;;;;;20.70;17.10;;;;;;;;;;4891032;28;99110;-76
2023/01/22 01:25:49;;;;;;;21.55;15.90;;;;;;;;;;4905262;28;99599;-76
2023/01/22 01:28:15;;;;;;;22.52;15.88;;;;;;;;;;4890023;28;98501;-75
2023/01/22 01:30:42;;;;;;;23.13;16.20;;;;;;;;;;4904693;28;102431;-76
2023/01/22 01:33:08;;;;;;;22.45;15.55;;;;;;;;;;4888901;28;98210;-76
2023/01/22 01:35:35;;;;;;;20.50;16.33;;;;;;;;;;4889856;28;99779;-76
2023/01/22 01:38:01;;;;;;;21.40;15.60;;;;;;;;;;4890282;28;98775;-76
2023/01/22 01:40:28;;;;;;;20.15;15.40;;;;;;;;;;4908993;28;98395;-76
2023/01/22 01:42:54;;;;;;;18.23;15.05;;;;;;;;;;4889138;28;99020;-76
2023/01/22 01:45:23;;;;;;;22.75;15.95;;;;;;;;;;4888453;28;98460;-75
2023/01/22 01:47:54;;;;;;;21.83;15.00;;;;;;;;;;4886528;28;98828;-76
2023/01/22 01:50:21;;;;;;;16.83;14.75;;;;;;;;;;4888845;28;99815;-75
2023/01/22 01:52:48;;;;;;;22.48;14.85;;;;;;;;;;4890297;28;98545;-75
2023/01/22 01:55:15;;;;;;;18.88;14.35;;;;;;;;;;4889451;28;98585;-76
2023/01/22 01:57:42;;;;;;;18.65;13.95;;;;;;;;;;4889392;28;99326;-76
2023/01/22 02:00:11;;;;;;;17.58;13.38;;;;;;;;;;4889943;28;98454;-76
2023/01/22 02:02:40;;;;;;;19.08;13.10;;;;;;;;;;4907611;28;102613;-76
2023/01/22 02:05:08;;;;;;;20.58;14.40;;;;;;;;;;4904644;28;98351;-75
2023/01/22 02:07:34;;;;;;;17.70;14.70;;;;;;;;;;4890100;28;99430;-75
2023/01/22 02:10:04;;;;;;;18.70;14.13;;;;;;;;;;4904349;28;101618;-75
2023/01/22 02:12:32;;;;;;;13.95;11.13;;;;;;;;;;4904859;28;98335;-75
2023/01/22 02:15:02;;;;;;;17.83;13.98;;;;;;;;;;4888518;28;100890;-77
2023/01/22 02:17:29;;;;;;;15.02;12.32;;;;;;;;;;4883276;28;98967;-76
2023/01/22 02:19:55;;;;;;;19.77;13.77;;;;;;;;;;4889115;28;98314;-76
2023/01/22 02:22:24;;;;;;;18.23;12.85;;;;;;;;;;4904818;28;99622;-76
2023/01/22 02:24:50;;;;;;;14.85;11.63;;;;;;;;;;4907289;28;100950;-76
2023/01/22 02:27:17;;;;;;;13.98;12.02;;;;;;;;;;4904477;28;102351;-76
2023/01/22 02:29:45;;;;;;;23.23;12.07;;;;;;;;;;4892916;28;101675;-76
2023/01/22 02:32:11;;;;;;;16.35;13.30;;;;;;;;;;4903584;28;98382;-75
2023/01/22 02:34:37;;;;;;;15.27;13.18;;;;;;;;;;4888821;28;98569;-75
2023/01/22 02:37:04;;;;;;;10.02;8.05;;;;;;;;;;4904177;28;101877;-75
2023/01/22 02:39:30;;;;;;;15.95;12.23;;;;;;;;;;4903792;28;98988;-77
2023/01/22 02:42:00;;;;;;;19.30;13.25;;;;;;;;;;4903875;28;101537;-75
2023/01/22 02:44:27;;;;;;;15.85;13.50;;;;;;;;;;4903563;28;101680;-75
2023/01/22 02:46:54;;;;;;;16.40;12.90;;;;;;;;;;4891772;28;98826;-76
2023/01/22 02:49:20;;;;;;;22.17;12.88;;;;;;;;;;4887440;28;100850;-75
2023/01/22 02:51:47;;;;;;;16.48;12.98;;;;;;;;;;4899676;28;98689;-76
2023/01/22 02:54:13;;;;;;;14.68;12.73;;;;;;;;;;4903705;28;101127;-75
2023/01/22 02:56:40;;;;;;;17.77;13.57;;;;;;;;;;4889440;28;99027;-75
2023/01/22 02:59:07;;;;;;;17.27;13.05;;;;;;;;;;4899354;28;98554;-75
2023/01/22 03:01:34;;;;;;;18.60;13.35;;;;;;;;;;4904555;28;100974;-75
2023/01/22 03:04:10;;;;;;;17.17;12.10;;;;;;;;;;4903500;28;101583;-76
2023/01/22 03:06:38;;;;;;;15.27;13.35;;;;;;;;;;4886963;28;98447;-74
2023/01/22 03:09:04;;;;;;;17.27;12.93;;;;;;;;;;4891671;28;98661;-75
2023/01/22 03:11:35;;;;;;;19.77;13.50;;;;;;;;;;4903893;28;98394;-77
2023/01/22 03:22:22;;;;;;;22.00;12.15;;;;;;;;;;4889393;28;99146;-75
2023/01/22 03:24:52;;;;;;;19.10;13.23;;;;;;;;;;4888486;28;99822;-75
2023/01/22 03:27:21;;;;;;;;;;;;;;;;;;4907277;28;98318;-76
2023/01/22 03:29:48;;;;;;;20.55;12.40;;;;;;;;;;4890860;28;123898;-75
2023/01/22 03:32:16;;;;;;;16.88;12.75;;;;;;;;;;4909135;28;98297;-75
2023/01/22 03:34:43;;;;;;;17.80;13.15;;;;;;;;;;4891460;28;98383;-75
2023/01/22 03:37:13;;;;;;;22.45;11.77;;;;;;;;;;4906753;28;100001;-75
2023/01/22 03:39:42;;;;;;;14.65;11.45;;;;;;;;;;4907162;28;98405;-75
2023/01/22 03:42:13;;;;;;;19.42;12.23;;;;;;;;;;4906104;28;100549;-75
2023/01/22 03:44:40;;;;;;;16.25;11.60;;;;;;;;;;4905932;28;101113;-75
2023/01/22 03:47:07;;;;;;;18.65;12.63;;;;;;;;;;4906266;28;98326;-74
2023/01/22 03:49:33;;;;;;;20.92;14.18;;;;;;;;;;4906264;28;100449;-74
2023/01/22 03:52:03;;;;;;;23.33;13.02;;;;;;;;;;4893438;28;101431;-74
2023/01/22 03:54:30;;;;;;;15.18;12.50;;;;;;;;;;4891923;28;98473;-74
2023/01/22 03:57:00;;;;;;;15.70;12.27;;;;;;;;;;4889205;28;100919;-75
2023/01/22 03:59:30;;;;;;;18.52;12.70;;;;;;;;;;4905919;28;98278;-75
2023/01/22 04:01:56;;;;;;;13.55;12.15;;;;;;;;;;4890034;28;100914;-75
2023/01/22 04:04:23;;;;;;;16.17;12.98;;;;;;;;;;4889724;28;101968;-74
2023/01/22 04:06:49;;;;;;;12.75;10.68;;;;;;;;;;4906767;28;100431;-75
2023/01/22 04:09:16;;;;;;;19.98;12.88;;;;;;;;;;4891259;28;99569;-76
2023/01/22 04:11:46;;;;;;;16.02;12.07;;;;;;;;;;4888643;28;99908;-75
2023/01/22 04:14:14;;;;;;;15.50;11.60;;;;;;;;;;4909334;28;98373;-75
2023/01/22 04:16:56;;;;;;;15.88;13.20;;;;;;;;;;4905860;28;100022;-75
2023/01/22 04:19:44;;;;;;;18.45;11.15;;;;;;;;;;4905918;28;98543;-75
2023/01/22 04:22:31;;;;;;;14.70;8.85;;;;;;;;;;4890996;28;99094;-75
2023/01/22 04:24:57;;;;;;;15.52;11.57;;;;;;;;;;4904121;28;99982;-75
2023/01/22 04:27:24;;;;;;;17.52;12.70;;;;;;;;;;4891537;28;98314;-75
2023/01/22 04:29:52;;;;;;;18.35;12.15;;;;;;;;;;4906087;28;100597;-76
2023/01/22 04:32:20;;;;;;;13.80;10.15;;;;;;;;;;4905200;28;100384;-75
2023/01/22 04:35:03;;;;;;;19.52;13.30;;;;;;;;;;4905049;28;101906;-74
2023/01/22 04:37:34;;;;;;;21.83;13.07;;;;;;;;;;4893908;28;98570;-74
2023/01/22 04:40:01;;;;;;;20.95;12.48;;;;;;;;;;4890032;28;98354;-75
2023/01/22 04:42:28;;;;;;;23.05;13.63;;;;;;;;;;4891625;28;98428;-74
2023/01/22 04:44:54;;;;;;;18.25;13.25;;;;;;;;;;4888621;28;101193;-75
2023/01/22 04:47:21;;;;;;;19.02;12.15;;;;;;;;;;4905903;28;98712;-75
2023/01/22 04:49:48;;;;;;;20.38;14.05;;;;;;;;;;4905046;28;100834;-74
2023/01/22 04:52:15;;;;;;;19.10;13.73;;;;;;;;;;4889818;28;99899;-75
2023/01/22 04:54:41;;;;;;;17.20;13.32;;;;;;;;;;4907547;28;98768;-74
2023/01/22 04:57:08;;;;;;;7.70;6.47;;;;;;;;;;4904647;28;100645;-74
2023/01/22 04:59:34;;;;;;;26.67;14.30;;;;;;;;;;4893295;28;100268;-74
2023/01/22 05:02:01;;;;;;;21.23;13.20;;;;;;;;;;4905365;28;100720;-75
2023/01/22 05:04:29;;;;;;;13.95;10.95;;;;;;;;;;4905635;28;103273;-75
2023/01/22 05:06:56;;;;;;;18.50;13.23;;;;;;;;;;4890421;28;98669;-76
2023/01/22 05:09:24;;;;;;;12.68;9.57;;;;;;;;;;4905732;28;100884;-75
2023/01/22 05:11:53;;;;;;;24.95;13.80;;;;;;;;;;4887803;28;99738;-75
2023/01/22 05:14:20;;;;;;;19.98;11.60;;;;;;;;;;4904174;28;98176;-75
2023/01/22 05:16:48;;;;;;;17.75;9.57;;;;;;;;;;4905753;28;101072;-74
2023/01/22 05:19:14;;;;;;;20.77;13.70;;;;;;;;;;4904848;28;103619;-74
2023/01/22 05:21:41;;;;;;;16.38;12.82;;;;;;;;;;4907976;28;98345;-74
2023/01/22 05:24:08;;;;;;;15.30;11.73;;;;;;;;;;4904917;28;101702;-74
2023/01/22 05:26:36;;;;;;;22.05;12.02;;;;;;;;;;4904694;28;98469;-74
2023/01/22 05:29:09;;;;;;;18.13;13.50;;;;;;;;;;4890856;28;98754;-75
2023/01/22 05:31:41;;;;;;;19.70;13.50;;;;;;;;;;4890066;28;98752;-74
2023/01/22 05:34:22;;;;;;;16.80;13.43;;;;;;;;;;4886091;28;99661;-75
2023/01/22 05:36:49;;;;;;;15.70;11.23;;;;;;;;;;4905919;28;100835;-75
2023/01/22 05:39:18;;;;;;;15.00;11.70;;;;;;;;;;4889213;28;101408;-75
2023/01/22 05:41:47;;;;;;;9.48;6.80;;;;;;;;;;4891887;28;98332;-74
2023/01/22 05:44:14;;;;;;;18.83;13.02;;;;;;;;;;4889793;28;99180;-74
2023/01/22 05:46:44;;;;;;;24.92;13.50;;;;;;;;;;4889245;28;98408;-74
2023/01/22 05:49:31;;;;;;;14.50;11.73;;;;;;;;;;4903962;28;101420;-74
2023/01/22 05:51:58;;;;;;;14.50;11.20;;;;;;;;;;4904182;28;101484;-74
2023/01/22 05:54:24;;;;;;;18.65;12.40;;;;;;;;;;4888871;28;98484;-74
2023/01/22 05:56:53;;;;;;;20.95;11.30;;;;;;;;;;4903875;28;101109;-76
2023/01/22 05:59:19;;;;;;;13.95;10.30;;;;;;;;;;4905050;28;101310;-75
2023/01/22 06:01:53;;;;;;;8.68;7.82;;;;;;;;;;4904198;28;98530;-75
2023/01/22 06:04:20;;;;;;;10.90;9.75;;;;;;;;;;4907312;28;100187;-74
2023/01/22 06:06:47;;;;;;;8.40;7.63;;;;;;;;;;4904512;28;98334;-75
2023/01/22 06:09:15;;;;;;;13.30;10.85;;;;;;;;;;4904112;28;100472;-74
2023/01/22 06:11:42;;;;;;;12.02;9.02;;;;;;;;;;4888610;28;100000;-74
2023/01/22 06:14:09;;;;;;;10.48;8.77;;;;;;;;;;4904467;28;98563;-74
2023/01/22 06:16:35;;;;;;;11.77;10.57;;;;;;;;;;4904132;28;100971;-75
2023/01/22 06:19:13;;;;;;;11.52;8.05;;;;;;;;;;4898685;28;101420;-75
2023/01/22 06:21:51;;;;;;;12.25;10.00;;;;;;;;;;4904525;28;98180;-74
2023/01/22 06:24:23;;;;;;;11.03;8.77;;;;;;;;;;4903795;28;100324;-74
2023/01/22 06:26:50;;;;;;;12.00;8.40;;;;;;;;;;4892850;28;98744;-74
2023/01/22 06:29:18;;;;;;;10.98;8.77;;;;;;;;;;4903609;28;100444;-74
2023/01/22 06:31:46;;;;;;;15.30;10.18;;;;;;;;;;4903293;28;101870;-74
2023/01/22 06:34:16;;;;;;;22.25;10.13;;;;;;;;;;4894008;28;98655;-74
2023/01/22 06:36:42;;;;;;;19.08;11.40;;;;;;;;;;4887327;28;100506;-74
2023/01/22 06:39:09;;;;;;;18.10;11.73;;;;;;;;;;4903133;28;100166;-74
2023/01/22 06:41:41;;;;;;;12.20;9.98;;;;;;;;;;4888450;28;99412;-74
2023/01/22 06:44:10;;;;;;;6.47;5.90;;;;;;;;;;4903284;28;100285;-75
2023/01/22 06:46:37;;;;;;;14.98;10.40;;;;;;;;;;4904705;28;101351;-74
2023/01/22 06:49:08;;;;;;;11.02;9.65;;;;;;;;;;4907381;28;99976;-75
2023/01/22 06:51:34;;;;;;;16.08;10.98;;;;;;;;;;4882587;28;99840;-74
2023/01/22 06:54:01;;;;;;;16.20;8.82;;;;;;;;;;4903411;28;98374;-74
2023/01/22 06:56:27;;;;;;;14.30;9.38;;;;;;;;;;4903664;28;99710;-74
2023/01/22 06:58:56;;;;;;;11.38;7.95;;;;;;;;;;4903411;28;102052;-73
2023/01/22 07:01:22;;;;;;;11.90;9.98;;;;;;;;;;4892183;28;98331;-74
2023/01/22 07:03:49;;;;;;;6.40;5.82;;;;;;;;;;4892834;28;99938;-73
2023/01/22 07:06:17;;;;;;;10.82;9.75;;;;;;;;;;4891719;28;99942;-74
2023/01/22 07:08:44;;;;;;;8.50;7.65;;;;;;;;;;4893374;28;98240;-74
2023/01/22 07:11:10;;;;;;;18.27;9.90;;;;;;;;;;4895685;28;99856;-74
2023/01/22 07:13:37;;;;;;;11.52;9.90;;;;;;;;;;4892089;28;100164;-74
2023/01/22 07:16:04;;;;;;;10.75;9.63;;;;;;;;;;4893153;28;99891;-74
2023/01/22 07:18:30;;;;;;;9.75;8.80;;;;;;;;;;4891879;28;100156;-74
2023/01/22 07:21:00;;;;;;;13.07;9.63;;;;;;;;;;4891972;28;98499;-74
2023/01/22 07:23:28;;;;;;;9.38;8.23;;;;;;;;;;4893017;28;99483;-74
2023/01/22 07:25:54;;;;;;;13.88;9.90;;;;;;;;;;4890888;28;100103;-75
2023/01/22 07:28:20;;;;;;;11.90;9.20;;;;;;;;;;4892924;28;99614;-74
2023/01/22 07:30:47;;;;;;;12.20;7.40;;;;;;;;;;4892088;28;99718;-74
2023/01/22 07:33:13;;;;;;;9.38;8.65;;;;;;;;;;4894786;28;99044;-74
2023/01/22 07:35:40;;;;;;;9.45;7.90;;;;;;;;;;4892350;28;99587;-74
2023/01/22 07:38:07;;;;;;;9.95;8.10;;;;;;;;;;4891479;28;100046;-74
2023/01/22 07:40:33;;;;;;;8.45;6.72;;;;;;;;;;4891597;28;98266;-75
2023/01/22 07:43:03;;;;;;;11.95;7.47;;;;;;;;;;4890483;28;98577;-75
2023/01/22 07:45:29;;;;;;;11.57;8.10;;;;;;;;;;4887058;28;100157;-75
2023/01/22 07:47:57;;;;;;;8.48;7.78;;;;;;;;;;4888612;28;100257;-75
2023/01/22 07:50:27;;;;;;;6.10;5.65;;;;;;;;;;4891221;28;99386;-74
2023/01/22 07:52:54;;;;;;;8.45;7.60;;;;;;;;;;4890912;28;99484;-76
2023/01/22 07:55:20;;;;;;;8.38;7.22;;;;;;;;;;4885488;28;99469;-76
2023/01/22 07:57:47;;;;;;;5.45;5.05;;;;;;;;;;4887754;28;100316;-75
2023/01/22 08:00:14;;;;;;;7.40;6.80;;;;;;;;;;4888150;28;99576;-76
2023/01/22 08:02:41;;;;;;;7.75;5.75;;;;;;;;;;4888372;28;100087;-76
2023/01/22 08:05:09;;;;;;;11.23;7.05;;;;;;;;;;4890495;28;100105;-76
2023/01/22 08:07:35;;;;;;;7.00;6.28;;;;;;;;;;4887468;28;100783;-76
2023/01/22 08:10:02;;;;;;;9.80;7.63;;;;;;;;;;4890772;28;99489;-75
2023/01/22 08:12:28;;;;;;;9.38;5.97;;;;;;;;;;4889905;28;100424;-76
2023/01/22 08:14:54;;;;;;;8.25;7.50;;;;;;;;;;4890379;28;100025;-75
2023/01/22 08:17:21;;;;;;;7.32;5.90;;;;;;;;;;4887258;28;101427;-76
2023/01/22 08:19:47;;;;;;;10.00;7.10;;;;;;;;;;4888118;28;99018;-76
2023/01/22 08:22:13;;;;;;;6.35;5.47;;;;;;;;;;4888719;28;99532;-75
2023/01/22 08:24:41;;;;;;;9.25;6.72;;;;;;;;;;4886184;28;100190;-74
2023/01/22 08:27:07;;;;;;;7.60;6.75;;;;;;;;;;4886599;28;100665;-75
2023/01/22 08:29:34;;;;;;;8.90;7.30;;;;;;;;;;4886513;28;99901;-75
2023/01/22 08:32:00;;;;;;;12.23;7.55;;;;;;;;;;4886242;28;98922;-76
2023/01/22 08:34:27;;;;;;;7.78;5.88;;;;;;;;;;4887464;28;99128;-77
2023/01/22 08:36:54;;;;;;;12.18;7.28;;;;;;;;;;4893761;28;99490;-76
2023/01/22 08:39:20;;;;;;;7.95;6.93;;;;;;;;;;4891137;28;98118;-76
2023/01/22 08:41:46;;;;;;;6.00;5.57;;;;;;;;;;4890435;28;99501;-77
2023/01/22 08:44:13;;;;;;;6.90;6.30;;;;;;;;;;4888863;28;99968;-76
2023/01/22 08:46:39;;;;;;;8.30;7.40;;;;;;;;;;4889294;28;98322;-75
2023/01/22 08:49:06;;;;;;;8.60;6.70;;;;;;;;;;4887317;28;99150;-75
2023/01/22 08:51:32;;;;;;;8.65;7.05;;;;;;;;;;4889603;28;100256;-75
2023/01/22 08:53:59;;;;;;;9.20;7.53;;;;;;;;;;4890812;28;98291;-76
2023/01/22 08:56:25;;;;;;;16.10;8.88;;;;;;;;;;4890429;28;99569;-75
2023/01/22 08:58:52;;;;;;;8.32;7.60;;;;;;;;;;4893044;28;100383;-75
2023/01/22 09:01:18;;;;;;;9.27;6.90;;;;;;;;;;4889064;28;98927;-75
2023/01/22 09:03:45;;;;;;;20.33;11.98;;;;;;;;;;4889779;28;100409;-75
2023/01/22 09:06:11;;;;;;;25.65;22.08;;;;;;;;;;4890460;28;98565;-77
2023/01/22 09:08:37;;;;;;;10.25;8.40;;;;;;;;;;4889200;28;99678;-77
2023/01/22 09:11:04;;;;;;;17.27;9.10;;;;;;;;;;4889411;28;100323;-78
2023/01/22 09:13:31;;;;;;;7.22;6.25;;;;;;;;;;4888852;28;98185;-77
2023/01/22 09:15:58;;;;;;;14.07;7.25;;;;;;;;;;4888882;28;100752;-77
2023/01/22 09:18:25;;;;;;;8.60;7.70;;;;;;;;;;4888042;28;100689;-77
2023/01/22 09:20:52;;;;;;;6.70;5.95;;;;;;;;;;4890631;28;100005;-78
2023/01/22 09:23:18;;;;;;;7.93;7.20;;;;;;;;;;4901758;28;99406;-77
2023/01/22 09:25:44;;;;;;;7.93;6.97;;;;;;;;;;4888225;28;98843;-78
2023/01/22 09:28:11;;;;;;;20.40;15.98;;;;;;;;;;4890852;28;99331;-79
2023/01/22 09:30:41;;;;;;;10.60;6.20;;;;;;;;;;4890094;28;100331;-78
2023/01/22 09:33:08;;;;;;;12.75;7.63;;;;;;;;;;4888222;28;98260;-78
2023/01/22 09:35:34;;;;;;;8.02;6.68;;;;;;;;;;4886364;28;101585;-76
2023/01/22 09:38:02;;;;;;;5.68;5.32;;;;;;;;;;4886717;28;99046;-76
2023/01/22 09:40:30;;;;;;;6.80;6.03;;;;;;;;;;4886436;28;98546;-77
2023/01/22 09:43:04;;;;;;;9.88;6.78;;;;;;;;;;4892463;28;99416;-76
2023/01/22 09:45:31;;;;;;;7.97;7.28;;;;;;;;;;4887009;28;98244;-77
2023/01/22 09:48:01;;;;;;;7.50;6.80;;;;;;;;;;4888122;28;99755;-75
2023/01/22 09:50:29;;;;;;;5.97;5.47;;;;;;;;;;4885372;28;99998;-79
2023/01/22 09:52:58;;;;;;;10.82;8.07;;;;;;;;;;4888795;28;98315;-76
2023/01/22 09:55:29;;;;;;;8.18;5.50;;;;;;;;;;4883151;28;99816;-77
2023/01/22 09:57:58;;;;;;;6.93;6.30;;;;;;;;;;4883502;28;101750;-75
2023/01/22 10:00:43;;;;;;;7.13;6.43;;;;;;;;;;4887713;28;98156;-77
2023/01/22 10:03:14;;;;;;;8.00;6.25;;;;;;;;;;4885059;28;99957;-77
2023/01/22 10:05:47;;;;;;;7.97;5.35;;;;;;;;;;4889369;28;98282;-77
2023/01/22 10:08:18;;;;;;;12.13;4.72;;;;;;;;;;4886892;28;99625;-77
2023/01/22 10:10:46;;;;;;;5.88;5.35;;;;;;;;;;4888476;28;100433;-78
2023/01/22 10:13:22;;;;;;;8.02;4.95;;;;;;;;;;4887203;28;99825;-77
2023/01/22 10:15:50;;;;;;;10.73;6.78;;;;;;;;;;4888541;28;99782;-76
2023/01/22 10:18:19;;;;;;;7.32;6.63;;;;;;;;;;4888684;28;99109;-77
2023/01/22 10:20:46;;;;;;;5.97;4.68;;;;;;;;;;4888306;28;98537;-77
2023/01/22 10:23:16;;;;;;;6.95;5.53;;;;;;;;;;4888767;28;100337;-77
2023/01/22 10:25:43;;;;;;;11.38;7.07;;;;;;;;;;4889657;28;100050;-75
2023/01/22 10:28:10;;;;;;;8.82;6.43;;;;;;;;;;4888951;28;99742;-78
2023/01/22 10:30:46;;;;;;;6.97;6.10;;;;;;;;;;4886750;28;100004;-76
2023/01/22 10:33:19;;;;;;;7.20;5.30;;;;;;;;;;4886823;28;98239;-75
2023/01/22 10:35:46;;;;;;;5.00;4.57;;;;;;;;;;4891539;28;99570;-75
2023/01/22 10:38:25;;;;;;;10.00;7.82;;;;;;;;;;4885025;28;100230;-74
2023/01/22 10:40:56;;;;;;;6.40;5.07;;;;;;;;;;4891949;28;98853;-76
2023/01/22 10:43:29;;;;;;;5.13;4.70;;;;;;;;;;4891744;28;99445;-77
2023/01/22 10:46:03;;;;;;;12.40;6.88;;;;;;;;;;4889942;28;100056;-76
2023/01/22 10:48:30;;;;;;;11.27;6.85;;;;;;;;;;4892493;28;98511;-77
2023/01/22 10:51:13;;;;;;;9.35;5.40;;;;;;;;;;4890947;28;100359;-76
2023/01/22 10:53:51;;;;;;;7.78;5.82;;;;;;;;;;4892469;28;98356;-75
2023/01/22 10:56:31;;;;;;;9.70;6.32;;;;;;;;;;4892429;28;98592;-76
2023/01/22 10:59:03;;;;;;;6.72;5.97;;;;;;;;;;4886453;28;100017;-76
2023/01/22 11:01:34;;;;;;;4.03;3.78;;;;;;;;;;4891066;28;98364;-75
2023/01/22 11:04:34;;;;;;;6.32;5.28;;;;;;;;;;4892179;28;99332;-76
2023/01/22 11:07:04;;;;;;;5.57;4.85;;;;;;;;;;4877194;28;100092;-77
2023/01/22 11:09:36;;;;;;;6.85;6.35;;;;;;;;;;4887775;28;98207;-76
2023/01/22 11:12:25;;;;;;;7.45;6.13;;;;;;;;;;4890767;28;99566;-75
2023/01/22 11:14:59;;;;;;;7.15;6.55;;;;;;;;;;4897451;28;98258;-76
2023/01/22 11:17:33;;;;;;;7.13;6.30;;;;;;;;;;4888008;28;99499;-76
2023/01/22 11:20:02;;;;;;;6.55;5.45;;;;;;;;;;4890308;28;100279;-75
2023/01/22 11:22:32;;;;;;;6.80;6.18;;;;;;;;;;4891465;28;98236;-76
2023/01/22 11:24:58;;;;;;;6.63;6.13;;;;;;;;;;4890976;28;99524;-76
2023/01/22 11:27:25;;;;;;;6.18;5.00;;;;;;;;;;4889810;28;100265;-76
2023/01/22 11:29:52;;;;;;;7.10;6.60;;;;;;;;;;4889812;28;99108;-76
2023/01/22 11:32:36;;;;;;;6.50;5.75;;;;;;;;;;4890561;28;98435;-76
2023/01/22 11:35:12;;;;;;;9.75;5.57;;;;;;;;;;4894320;28;99973;-76
2023/01/22 11:37:58;;;;;;;7.07;5.80;;;;;;;;;;4891249;28;101070;-77
2023/01/22 11:40:26;;;;;;;4.25;3.88;;;;;;;;;;4888276;28;99489;-77
2023/01/22 11:43:08;;;;;;;5.05;4.65;;;;;;;;;;4887617;28;98467;-76
2023/01/22 11:45:53;;;;;;;6.90;6.32;;;;;;;;;;4890596;28;99568;-76
2023/01/22 11:48:35;;;;;;;7.00;5.68;;;;;;;;;;4892094;28;100199;-76
2023/01/22 11:51:10;;;;;;;6.30;5.70;;;;;;;;;;4891189;28;98149;-75
2023/01/22 11:53:56;;;;;;;9.82;5.18;;;;;;;;;;4889136;28;100107;-76
2023/01/22 11:56:36;;;;;;;6.03;5.43;;;;;;;;;;4890766;28;99988;-75
2023/01/22 11:59:05;;;;;;;5.53;5.10;;;;;;;;;;4893747;28;98275;-76
2023/01/22 12:01:52;;;;;;;7.97;6.28;;;;;;;;;;4887173;28;100152;-77
2023/01/22 12:04:38;;;;;;;6.47;5.88;;;;;;;;;;4891738;28;98215;-77
2023/01/22 12:07:07;;;;;;;7.63;5.35;;;;;;;;;;4891407;28;99577;-76
2023/01/22 12:09:44;;;;;;;7.32;6.63;;;;;;;;;;4890917;28;99643;-77
2023/01/22 12:12:20;;;;;;;8.30;4.97;;;;;;;;;;4891509;28;98641;-78
2023/01/22 12:14:50;;;;;;;11.80;6.80;;;;;;;;;;4890238;28;98892;-77
2023/01/22 12:17:16;;;;;;;8.65;6.07;;;;;;;;;;4890716;28;99093;-77
2023/01/22 12:19:52;;;;;;;6.45;5.57;;;;;;;;;;4892457;28;98361;-77
2023/01/22 12:22:21;;;;;;;5.88;4.97;;;;;;;;;;4889456;28;98749;-78
2023/01/22 12:24:48;;;;;;;8.10;7.00;;;;;;;;;;4890974;28;98341;-77
2023/01/22 12:27:21;;;;;;;7.88;6.72;;;;;;;;;;4890409;28;99504;-77
2023/01/22 12:29:50;;;;;;;8.55;6.65;;;;;;;;;;4889788;28;100435;-77
2023/01/22 12:32:18;;;;;;;6.15;5.65;;;;;;;;;;4890660;28;98691;-77
2023/01/22 12:34:47;;;;;;;7.30;6.60;;;;;;;;;;4890381;28;99517;-78
2023/01/22 12:37:16;;;;;;;6.88;6.28;;;;;;;;;;4889407;28;99261;-78
2023/01/22 12:39:53;;;;;;;5.78;5.30;;;;;;;;;;4890464;28;98316;-76
2023/01/22 12:42:31;;;;;;;9.40;6.28;;;;;;;;;;4892997;28;99494;-76
2023/01/22 12:45:00;;;;;;;11.63;6.30;;;;;;;;;;4895449;28;98346;-76
2023/01/22 12:47:45;;;;;;;7.82;7.00;;;;;;;;;;4889633;28;99487;-77
2023/01/22 12:50:15;;;;;;;8.93;5.95;;;;;;;;;;4887892;28;99974;-77
2023/01/22 12:52:42;;;;;;;17.35;12.75;;;;;;;;;;4890004;28;98844;-78
2023/01/22 12:55:21;;;;;;;8.35;6.68;;;;;;;;;;4889278;28;99958;-77
2023/01/22 12:57:48;;;;;;;6.97;6.28;;;;;;;;;;4888729;28;100287;-77
2023/01/22 13:00:21;;;;;;;8.45;7.43;;;;;;;;;;4889833;28;98309;-78
2023/01/22 13:02:47;;;;;;;5.88;5.25;;;;;;;;;;4890484;28;100147;-77
2023/01/22 13:05:14;;;;;;;11.45;9.70;;;;;;;;;;4891531;28;100218;-78
2023/01/22 13:07:40;;;;;;;5.60;5.10;;;;;;;;;;4890359;28;98901;-78
2023/01/22 13:10:18;;;;;;;15.15;8.77;;;;;;;;;;4886855;28;100377;-77
2023/01/22 13:12:48;;;;;;;9.73;7.57;;;;;;;;;;4883531;28;98282;-77
2023/01/22 13:15:25;;;;;;;13.38;7.25;;;;;;;;;;4888907;28;99883;-78
2023/01/22 13:18:10;;;;;;;10.38;9.20;;;;;;;;;;4883838;28;100361;-78
2023/01/22 13:20:46;;;;;;;12.43;8.50;;;;;;;;;;4888763;28;100090;-77
2023/01/22 13:23:13;;;;;;;8.90;8.00;;;;;;;;;;4888731;28;99645;-75
2023/01/22 13:25:41;;;;;;;10.88;8.45;;;;;;;;;;4887168;28;99923;-78
2023/01/22 13:28:09;;;;;;;13.20;7.47;;;;;;;;;;4887073;28;99367;-77
2023/01/22 13:30:35;;;;;;;14.15;10.23;;;;;;;;;;4881812;28;99050;-77
2023/01/22 13:33:09;;;;;;;8.25;7.47;;;;;;;;;;4886124;28;100985;-75
2023/01/22 13:35:39;;;;;;;9.30;7.45;;;;;;;;;;4886162;28;99843;-77
2023/01/22 13:38:05;;;;;;;10.02;6.72;;;;;;;;;;4885918;28;99473;-78
2023/01/22 13:40:32;;;;;;;13.90;8.93;;;;;;;;;;4887461;28;98731;-75
2023/01/22 13:43:17;;;;;;;10.25;7.90;;;;;;;;;;4888643;28;100128;-77
2023/01/22 13:45:44;;;;;;;9.32;7.10;;;;;;;;;;4889084;28;100082;-76
2023/01/22 13:48:16;;;;;;;6.90;6.18;;;;;;;;;;4885158;28;100531;-76
2023/01/22 13:50:50;;;;;;;10.52;8.60;;;;;;;;;;4890257;28;98892;-76
2023/01/22 13:53:42;;;;;;;7.97;7.18;;;;;;;;;;4885344;28;99745;-76
2023/01/22 13:56:16;;;;;;;12.93;8.02;;;;;;;;;;4888449;28;99071;-75
2023/01/22 13:58:43;;;;;;;7.30;6.70;;;;;;;;;;4887999;28;100574;-77
2023/01/22 14:01:28;;;;;;;14.73;9.00;;;;;;;;;;4888305;28;98306;-77
2023/01/22 14:04:01;;;;;;;6.65;5.82;;;;;;;;;;4891016;28;99004;-75
2023/01/22 14:06:28;;;;;;;10.07;9.10;;;;;;;;;;4889796;28;99601;-77
2023/01/22 14:08:55;;;;;;;15.90;10.38;;;;;;;;;;4888079;28;99464;-78
2023/01/22 14:11:22;;;;;;;14.15;10.73;;;;;;;;;;4887788;28;100189;-75
2023/01/22 14:13:50;;;;;;;12.52;9.43;;;;;;;;;;4891467;28;99764;-74
2023/01/22 14:16:16;;;;;;;9.32;8.40;;;;;;;;;;4888737;28;98513;-75
2023/01/22 14:18:46;;;;;;;11.48;8.80;;;;;;;;;;4889068;28;99946;-76
2023/01/22 14:21:13;;;;;;;17.92;12.57;;;;;;;;;;4886808;28;98172;-76
2023/01/22 14:23:41;;;;;;;23.15;14.93;;;;;;;;;;4886321;28;99453;-76
2023/01/22 14:26:08;;;;;;;7.60;6.75;;;;;;;;;;4882686;28;100308;-75
2023/01/22 14:28:34;;;;;;;8.20;7.47;;;;;;;;;;4888120;28;98619;-75
2023/01/22 14:31:01;;;;;;;11.27;8.40;;;;;;;;;;4889317;28;99583;-75
2023/01/22 14:33:29;;;;;;;9.73;8.25;;;;;;;;;;4891574;28;101091;-75
2023/01/22 14:35:56;;;;;;;11.45;10.32;;;;;;;;;;4888715;28;99413;-75
2023/01/22 14:38:22;;;;;;;42.92;35.83;;;;;;;;;;4889439;28;99902;-76
2023/01/22 14:40:49;;;;;;;12.85;9.93;;;;;;;;;;4889737;28;98420;-74
2023/01/22 14:43:16;;;;;;;10.57;9.20;;;;;;;;;;4887707;28;98967;-74
2023/01/22 14:45:43;;;;;;;12.38;11.07;;;;;;;;;;4888295;28;99972;-74
2023/01/22 14:48:13;;;;;;;15.52;11.88;;;;;;;;;;4887449;28;100126;-77